createdAt,value
2024-03-02T00:00:28.510Z,23.80
2024-03-02T00:01:28.598Z,23.80
2024-03-02T00:02:28.502Z,23.81
2024-03-02T00:03:28.664Z,23.81
2024-03-02T00:04:28.665Z,23.81
2024-03-02T00:05:28.734Z,23.80
2024-03-02T00:06:28.812Z,23.80
2024-03-02T00:07:28.853Z,23.81
2024-03-02T00:08:29.033Z,23.80
2024-03-02T00:09:29.002Z,23.79
2024-03-02T00:10:29.035Z,23.80
2024-03-02T00:11:29.216Z,23.80
2024-03-02T00:12:29.205Z,23.79
2024-03-02T00:13:29.191Z,23.79
2024-03-02T00:14:29.264Z,23.79
2024-03-02T00:15:29.392Z,23.79
2024-03-02T00:16:29.463Z,23.78
2024-03-02T00:17:29.492Z,23.79
2024-03-02T00:18:29.573Z,23.79
2024-03-02T00:19:29.623Z,23.78
2024-03-02T00:20:29.656Z,23.79
2024-03-02T00:21:29.768Z,23.78
2024-03-02T00:22:29.848Z,23.79
2024-03-02T00:23:29.865Z,23.78
2024-03-02T00:24:30.014Z,23.77
2024-03-02T00:25:30.029Z,23.78
2024-03-02T00:26:30.095Z,23.77
2024-03-02T00:27:30.181Z,23.77
2024-03-02T00:28:30.257Z,23.77
2024-03-02T00:29:30.263Z,23.78
2024-03-02T00:30:30.426Z,23.77
2024-03-02T00:31:30.414Z,23.78
2024-03-02T00:32:30.558Z,23.77
2024-03-02T00:33:30.596Z,23.77
2024-03-02T00:34:30.613Z,23.78
2024-03-02T00:35:30.681Z,23.78
2024-03-02T00:36:30.786Z,23.77
2024-03-02T00:37:30.786Z,23.77
2024-03-02T00:38:30.869Z,23.78
2024-03-02T00:39:30.928Z,23.78
2024-03-02T00:40:30.985Z,23.77
2024-03-02T00:41:31.067Z,23.77
2024-03-02T00:42:31.191Z,23.77
2024-03-02T00:43:31.196Z,23.76
2024-03-02T00:44:31.309Z,23.76
2024-03-02T00:45:31.450Z,23.76
2024-03-02T00:46:31.411Z,23.76
2024-03-02T00:47:31.459Z,23.75
2024-03-02T00:48:31.600Z,23.76
2024-03-02T00:49:31.628Z,23.76
2024-03-02T00:50:31.660Z,23.75
2024-03-02T00:51:31.791Z,23.76
2024-03-02T00:52:31.789Z,23.75
2024-03-02T00:53:31.879Z,23.75
2024-03-02T00:54:31.971Z,23.75
2024-03-02T00:55:32.024Z,23.75
2024-03-02T00:56:32.101Z,23.74
2024-03-02T00:57:32.184Z,23.74
2024-03-02T00:58:32.204Z,23.74
2024-03-02T00:59:32.269Z,23.75
2024-03-02T01:00:32.406Z,23.75
2024-03-02T01:01:32.442Z,23.74
2024-03-02T01:02:32.479Z,23.74
2024-03-02T01:03:32.585Z,23.74
2024-03-02T01:04:32.675Z,23.74
2024-03-02T01:05:32.702Z,23.75
2024-03-02T01:06:32.860Z,23.74
2024-03-02T01:07:32.839Z,23.74
2024-03-02T01:08:32.920Z,23.74
2024-03-02T01:09:33.006Z,23.75
2024-03-02T01:10:33.087Z,23.73
2024-03-02T01:11:33.110Z,23.74
2024-03-02T01:12:33.242Z,23.74
2024-03-02T01:13:33.281Z,23.74
2024-03-02T01:14:33.342Z,23.73
2024-03-02T01:15:33.479Z,23.73
2024-03-02T01:16:33.473Z,23.73
2024-03-02T01:17:33.549Z,23.72
2024-03-02T01:18:33.624Z,23.73
2024-03-02T01:19:33.709Z,23.73
2024-03-02T01:20:33.737Z,23.72
2024-03-02T01:21:33.831Z,23.72
2024-03-02T01:22:33.895Z,23.71
2024-03-02T01:23:33.973Z,23.71
2024-03-02T01:24:34.065Z,23.71
2024-03-02T01:25:34.130Z,23.71
2024-03-02T01:26:34.181Z,23.72
2024-03-02T01:27:34.269Z,23.72
2024-03-02T01:28:34.288Z,23.72
2024-03-02T01:29:34.386Z,23.72
2024-03-02T01:30:34.550Z,23.71
2024-03-02T01:31:34.556Z,23.72
2024-03-02T01:32:34.580Z,23.71
2024-03-02T01:33:34.690Z,23.71
2024-03-02T01:34:34.696Z,23.71
2024-03-02T01:35:34.821Z,23.70
2024-03-02T01:36:34.906Z,23.71
2024-03-02T01:37:34.886Z,23.70
2024-03-02T01:38:35.000Z,23.71
2024-03-02T01:39:35.026Z,23.70
2024-03-02T01:40:35.096Z,23.70
2024-03-02T01:41:35.139Z,23.69
2024-03-02T01:42:35.239Z,23.70
2024-03-02T01:43:36.965Z,23.70
2024-03-02T01:44:35.312Z,23.70
2024-03-02T01:45:35.294Z,23.70
2024-03-02T01:46:35.286Z,23.70
2024-03-02T01:47:35.265Z,23.69
2024-03-02T01:48:35.378Z,23.70
2024-03-02T01:49:35.325Z,23.70
2024-03-02T01:50:35.275Z,23.69
2024-03-02T01:51:35.344Z,23.69
2024-03-02T01:52:35.291Z,23.69
2024-03-02T01:53:35.281Z,23.69
2024-03-02T01:54:35.320Z,23.69
2024-03-02T01:55:35.288Z,23.69
2024-03-02T01:56:35.314Z,23.69
2024-03-02T01:57:35.353Z,23.69
2024-03-02T01:58:35.319Z,23.69
2024-03-02T01:59:35.301Z,23.69
2024-03-02T02:00:35.353Z,23.69
2024-03-02T02:01:35.324Z,23.68
2024-03-02T02:02:35.298Z,23.68
2024-03-02T02:03:35.380Z,23.67
2024-03-02T02:04:35.287Z,23.67
2024-03-02T02:05:35.291Z,23.67
2024-03-02T02:06:35.330Z,23.67
2024-03-02T02:07:35.303Z,23.67
2024-03-02T02:08:35.362Z,23.68
2024-03-02T02:09:35.372Z,23.68
2024-03-02T02:10:35.354Z,23.67
2024-03-02T02:11:35.350Z,23.67
2024-03-02T02:12:35.364Z,23.66
2024-03-02T02:13:35.338Z,23.67
2024-03-02T02:14:35.318Z,23.67
2024-03-02T02:15:35.374Z,23.67
2024-03-02T02:16:35.345Z,23.67
2024-03-02T02:17:35.345Z,23.67
2024-03-02T02:18:35.418Z,23.67
2024-03-02T02:19:35.370Z,23.68
2024-03-02T02:20:35.318Z,23.65
2024-03-02T02:21:35.444Z,23.66
2024-03-02T02:22:35.467Z,23.66
2024-03-02T02:23:35.512Z,23.66
2024-03-02T02:24:35.612Z,23.66
2024-03-02T02:25:35.655Z,23.66
2024-03-02T02:26:35.761Z,23.66
2024-03-02T02:27:35.842Z,23.66
2024-03-02T02:28:35.841Z,23.66
2024-03-02T02:29:35.867Z,23.66
2024-03-02T02:30:36.024Z,23.66
2024-03-02T02:31:36.030Z,23.66
2024-03-02T02:32:36.115Z,23.65
2024-03-02T02:33:36.228Z,23.66
2024-03-02T02:34:36.219Z,23.65
2024-03-02T02:35:36.319Z,23.65
2024-03-02T02:36:36.368Z,23.66
2024-03-02T02:37:36.390Z,23.65
2024-03-02T02:38:36.425Z,23.65
2024-03-02T02:39:36.520Z,23.65
2024-03-02T02:40:36.554Z,23.65
2024-03-02T02:41:36.630Z,23.65
2024-03-02T02:42:36.682Z,23.64
2024-03-02T02:43:36.743Z,23.63
2024-03-02T02:44:36.841Z,23.63
2024-03-02T02:45:36.931Z,23.64
2024-03-02T02:46:36.956Z,23.63
2024-03-02T02:47:37.112Z,23.63
2024-03-02T02:48:37.126Z,23.64
2024-03-02T02:49:37.187Z,23.63
2024-03-02T02:50:37.264Z,23.63
2024-03-02T02:51:37.327Z,23.63
2024-03-02T02:52:37.415Z,23.63
2024-03-02T02:53:37.470Z,23.63
2024-03-02T02:54:37.504Z,23.63
2024-03-02T02:55:37.572Z,23.63
2024-03-02T02:56:37.656Z,23.63
2024-03-02T02:57:37.779Z,23.63
2024-03-02T02:58:37.753Z,23.63
2024-03-02T02:59:37.841Z,23.62
2024-03-02T03:00:37.923Z,23.62
2024-03-02T03:01:38.009Z,23.62
2024-03-02T03:02:37.970Z,23.62
2024-03-02T03:03:38.128Z,23.62
2024-03-02T03:04:38.076Z,23.61
2024-03-02T03:05:38.146Z,23.62
2024-03-02T03:06:38.197Z,23.62
2024-03-02T03:07:38.175Z,23.61
2024-03-02T03:08:38.254Z,23.62
2024-03-02T03:09:38.287Z,23.62
2024-03-02T03:10:38.299Z,23.61
2024-03-02T03:11:38.380Z,23.61
2024-03-02T03:12:38.387Z,23.61
2024-03-02T03:13:38.392Z,23.62
2024-03-02T03:14:38.423Z,23.61
2024-03-02T03:15:38.505Z,23.61
2024-03-02T03:16:38.537Z,23.61
2024-03-02T03:17:38.722Z,23.61
2024-03-02T03:18:38.633Z,23.61
2024-03-02T03:19:38.696Z,23.60
2024-03-02T03:20:38.661Z,23.60
2024-03-02T03:21:38.766Z,23.61
2024-03-02T03:22:38.786Z,23.60
2024-03-02T03:23:38.840Z,23.61
2024-03-02T03:24:38.842Z,23.60
2024-03-02T03:25:38.900Z,23.60
2024-03-02T03:26:38.908Z,23.60
2024-03-02T03:27:39.064Z,23.59
2024-03-02T03:28:38.997Z,23.60
2024-03-02T03:29:39.097Z,23.60
2024-03-02T03:30:39.135Z,23.60
2024-03-02T03:31:39.141Z,23.59
2024-03-02T03:32:39.199Z,23.60
2024-03-02T03:33:39.300Z,23.60
2024-03-02T03:34:39.330Z,23.59
2024-03-02T03:35:39.305Z,23.59
2024-03-02T03:36:39.388Z,23.59
2024-03-02T03:37:39.433Z,23.60
2024-03-02T03:38:39.479Z,23.59
2024-03-02T03:39:39.530Z,23.59
2024-03-02T03:40:39.558Z,23.59
2024-03-02T03:41:39.631Z,23.60
2024-03-02T03:42:39.638Z,23.59
2024-03-02T03:43:39.670Z,23.58
2024-03-02T03:44:39.713Z,23.59
2024-03-02T03:45:39.808Z,23.59
2024-03-02T03:46:39.827Z,23.58
2024-03-02T03:47:39.948Z,23.58
2024-03-02T03:48:39.997Z,23.59
2024-03-02T03:49:39.987Z,23.58
2024-03-02T03:50:40.047Z,23.57
2024-03-02T03:51:40.115Z,23.58
2024-03-02T03:52:40.149Z,23.57
2024-03-02T03:53:40.144Z,23.58
2024-03-02T03:54:40.239Z,23.57
2024-03-02T03:55:40.264Z,23.57
2024-03-02T03:56:40.305Z,23.57
2024-03-02T03:57:40.379Z,23.57
2024-03-02T03:58:40.392Z,23.58
2024-03-02T03:59:40.475Z,23.57
2024-03-02T04:00:40.547Z,23.57
2024-03-02T04:01:40.607Z,23.57
2024-03-02T04:02:40.643Z,23.57
2024-03-02T04:03:40.646Z,23.57
2024-03-02T04:04:40.606Z,23.57
2024-03-02T04:05:40.613Z,23.56
2024-03-02T04:06:40.650Z,23.56
2024-03-02T04:07:40.665Z,23.57
2024-03-02T04:08:40.728Z,23.57
2024-03-02T04:09:40.848Z,23.57
2024-03-02T04:10:40.776Z,23.56
2024-03-02T04:11:40.831Z,23.55
2024-03-02T04:12:40.940Z,23.56
2024-03-02T04:13:40.909Z,23.56
2024-03-02T04:14:40.965Z,23.56
2024-03-02T04:15:41.076Z,23.56
2024-03-02T04:16:48.233Z,23.53
2024-03-02T04:17:48.297Z,23.55
2024-03-02T04:18:48.323Z,23.55
2024-03-02T04:19:48.244Z,23.55
2024-03-02T04:20:50.341Z,23.55
2024-03-02T04:21:48.241Z,23.55
2024-03-02T04:22:48.246Z,23.55
2024-03-02T04:23:48.239Z,23.55
2024-03-02T04:24:48.250Z,23.55
2024-03-02T04:25:48.224Z,23.55
2024-03-02T04:26:48.280Z,23.55
2024-03-02T04:27:48.401Z,23.55
2024-03-02T04:28:48.286Z,23.55
2024-03-02T04:29:48.234Z,23.56
2024-03-02T04:30:48.303Z,23.55
2024-03-02T04:31:55.491Z,23.52
2024-03-02T04:32:55.538Z,23.53
2024-03-02T04:33:55.522Z,23.54
2024-03-02T04:34:55.452Z,23.54
2024-03-02T04:35:55.521Z,23.54
2024-03-02T04:36:55.541Z,23.54
2024-03-02T04:37:55.488Z,23.54
2024-03-02T04:38:55.482Z,23.54
2024-03-02T04:39:55.533Z,23.54
2024-03-02T04:40:55.479Z,23.54
2024-03-02T04:41:55.482Z,23.53
2024-03-02T04:42:55.582Z,23.53
2024-03-02T04:43:55.493Z,23.53
2024-03-02T04:44:55.503Z,23.53
2024-03-02T04:45:55.504Z,23.53
2024-03-02T04:46:55.469Z,23.53
2024-03-02T04:47:55.476Z,23.54
2024-03-02T04:48:55.578Z,23.53
2024-03-02T04:49:55.479Z,23.53
2024-03-02T04:50:55.503Z,23.53
2024-03-02T04:51:55.552Z,23.53
2024-03-02T04:52:55.510Z,23.53
2024-03-02T04:53:55.517Z,23.53
2024-03-02T04:54:55.513Z,23.52
2024-03-02T04:55:55.488Z,23.53
2024-03-02T04:56:55.475Z,23.53
2024-03-02T04:57:55.607Z,23.52
2024-03-02T04:58:55.510Z,23.53
2024-03-02T04:59:55.503Z,23.53
2024-03-02T05:00:55.583Z,23.53
2024-03-02T05:01:55.599Z,23.52
2024-03-02T05:02:55.514Z,23.53
2024-03-02T05:03:55.690Z,23.52
2024-03-02T05:04:55.512Z,23.53
2024-03-02T05:05:55.520Z,23.53
2024-03-02T05:06:55.573Z,23.52
2024-03-02T05:07:55.499Z,23.52
2024-03-02T05:08:55.526Z,23.52
2024-03-02T05:09:55.766Z,23.52
2024-03-02T05:10:55.594Z,23.52
2024-03-02T05:11:55.515Z,23.51
2024-03-02T05:12:55.659Z,23.52
2024-03-02T05:13:55.489Z,23.51
2024-03-02T05:14:55.513Z,23.51
2024-03-02T05:15:56.170Z,23.52
2024-03-02T05:16:55.513Z,23.51
2024-03-02T05:17:55.604Z,23.51
2024-03-02T05:18:55.629Z,23.51
2024-03-02T05:20:16.521Z,23.50
2024-03-02T05:20:55.547Z,23.48
2024-03-02T05:21:55.589Z,23.49
2024-03-02T05:22:55.517Z,23.49
2024-03-02T05:23:55.485Z,23.50
2024-03-02T05:24:55.639Z,23.50
2024-03-02T05:25:55.528Z,23.50
2024-03-02T05:26:55.533Z,23.50
2024-03-02T05:27:55.611Z,23.50
2024-03-02T05:28:55.546Z,23.50
2024-03-02T05:29:55.546Z,23.50
2024-03-02T05:30:55.570Z,23.50
2024-03-02T05:31:55.512Z,23.49
2024-03-02T05:32:55.546Z,23.50
2024-03-02T05:33:57.901Z,23.50
2024-03-02T05:34:55.538Z,23.49
2024-03-02T05:35:55.530Z,23.49
2024-03-02T05:36:55.667Z,23.49
2024-03-02T05:37:55.513Z,23.49
2024-03-02T05:38:55.551Z,23.50
2024-03-02T05:39:55.620Z,23.50
2024-03-02T05:40:55.531Z,23.49
2024-03-02T05:41:55.506Z,23.49
2024-03-02T05:42:55.541Z,23.49
2024-03-02T05:43:55.537Z,23.49
2024-03-02T05:44:55.537Z,23.49
2024-03-02T05:45:55.565Z,23.49
2024-03-02T05:46:55.498Z,23.48
2024-03-02T05:47:55.569Z,23.49
2024-03-02T05:48:55.595Z,23.49
2024-03-02T05:49:55.518Z,23.48
2024-03-02T05:50:55.548Z,23.49
2024-03-02T05:51:55.567Z,23.48
2024-03-02T05:52:55.562Z,23.49
2024-03-02T05:53:55.526Z,23.48
2024-03-02T05:54:55.627Z,23.48
2024-03-02T05:55:55.619Z,23.48
2024-03-02T05:56:55.544Z,23.49
2024-03-02T05:57:55.727Z,23.49
2024-03-02T05:58:55.552Z,23.49
2024-03-02T05:59:55.571Z,23.48
2024-03-02T06:00:55.673Z,23.49
2024-03-02T06:01:55.619Z,23.48
2024-03-02T06:02:55.528Z,23.48
2024-03-02T06:03:55.639Z,23.48
2024-03-02T06:04:55.563Z,23.49
2024-03-02T06:05:55.569Z,23.49
2024-03-02T06:06:55.688Z,23.50
2024-03-02T06:07:56.072Z,23.50
2024-03-02T06:08:55.537Z,23.50
2024-03-02T06:09:55.634Z,23.50
2024-03-02T06:10:55.568Z,23.50
2024-03-02T06:11:55.581Z,23.51
2024-03-02T06:12:55.734Z,23.51
2024-03-02T06:13:55.586Z,23.51
2024-03-02T06:14:55.552Z,23.51
2024-03-02T06:15:55.680Z,23.52
2024-03-02T06:16:55.561Z,23.52
2024-03-02T06:17:55.564Z,23.53
2024-03-02T06:18:55.604Z,23.54
2024-03-02T06:19:55.556Z,23.54
2024-03-02T06:20:55.600Z,23.55
2024-03-02T06:21:55.677Z,23.55
2024-03-02T06:22:55.554Z,23.56
2024-03-02T06:23:55.564Z,23.55
2024-03-02T06:24:55.634Z,23.55
2024-03-02T06:25:55.578Z,23.56
2024-03-02T06:26:55.558Z,23.57
2024-03-02T06:27:55.546Z,23.57
2024-03-02T06:28:55.594Z,23.57
2024-03-02T06:29:55.587Z,23.59
2024-03-02T06:30:55.642Z,23.59
2024-03-02T06:31:55.596Z,23.61
2024-03-02T06:32:55.633Z,23.61
2024-03-02T06:33:55.649Z,23.61
2024-03-02T06:34:55.593Z,23.63
2024-03-02T06:35:55.597Z,23.64
2024-03-02T06:36:55.687Z,23.64
2024-03-02T06:37:55.604Z,23.64
2024-03-02T06:38:55.589Z,23.64
2024-03-02T06:39:55.745Z,23.65
2024-03-02T06:40:55.577Z,23.66
2024-03-02T06:41:55.558Z,23.67
2024-03-02T06:42:55.809Z,23.68
2024-03-02T06:43:55.615Z,23.69
2024-03-02T06:44:55.603Z,23.69
2024-03-02T06:45:55.701Z,23.71
2024-03-02T06:46:55.613Z,23.72
2024-03-02T06:47:55.657Z,23.73
2024-03-02T06:48:55.756Z,23.75
2024-03-02T06:49:55.628Z,23.76
2024-03-02T06:50:55.646Z,23.77
2024-03-02T06:51:55.778Z,23.78
2024-03-02T06:52:55.577Z,23.78
2024-03-02T06:53:55.624Z,23.76
2024-03-02T06:54:55.675Z,23.76
2024-03-02T06:55:55.609Z,23.74
2024-03-02T06:56:55.665Z,23.75
2024-03-02T06:57:55.803Z,23.76
2024-03-02T06:58:55.780Z,23.76
2024-03-02T06:59:55.912Z,23.77
2024-03-02T07:00:55.967Z,23.76
2024-03-02T07:01:56.046Z,23.76
2024-03-02T07:02:56.063Z,23.76
2024-03-02T07:03:56.170Z,23.75
2024-03-02T07:04:56.209Z,23.74
2024-03-02T07:05:56.280Z,23.75
2024-03-02T07:06:56.405Z,23.75
2024-03-02T07:07:56.413Z,23.75
2024-03-02T07:08:56.496Z,23.75
2024-03-02T07:09:56.601Z,23.76
2024-03-02T07:10:56.661Z,23.77
2024-03-02T07:11:56.723Z,23.77
2024-03-02T07:12:56.827Z,23.78
2024-03-02T07:13:56.845Z,23.78
2024-03-02T07:14:56.903Z,23.79
2024-03-02T07:15:57.045Z,23.79
2024-03-02T07:16:57.013Z,23.80
2024-03-02T07:17:57.126Z,23.81
2024-03-02T07:18:57.240Z,23.82
2024-03-02T07:19:57.299Z,23.82
2024-03-02T07:20:57.272Z,23.83
2024-03-02T07:21:57.481Z,23.85
2024-03-02T07:22:57.405Z,23.87
2024-03-02T07:23:57.483Z,23.88
2024-03-02T07:24:57.602Z,23.90
2024-03-02T07:26:57.600Z,23.96
2024-03-02T07:27:57.627Z,23.98
2024-03-02T07:28:57.619Z,24.00
2024-03-02T07:29:57.624Z,24.02
2024-03-02T07:30:57.685Z,24.04
2024-03-02T07:31:57.600Z,24.07
2024-03-02T07:32:57.656Z,24.11
2024-03-02T07:33:57.720Z,24.16
2024-03-02T07:34:57.621Z,24.18
2024-03-02T07:35:57.616Z,24.20
2024-03-02T07:36:57.674Z,24.23
2024-03-02T07:37:57.627Z,24.29
2024-03-02T07:38:57.618Z,24.36
2024-03-02T07:39:57.702Z,24.43
2024-03-02T07:40:57.654Z,24.50
2024-03-02T07:41:57.632Z,24.54
2024-03-02T07:42:57.707Z,24.58
2024-03-02T07:43:57.617Z,24.60
2024-03-02T07:44:57.688Z,24.62
2024-03-02T07:45:57.722Z,24.66
2024-03-02T07:46:58.166Z,24.71
2024-03-02T07:48:57.630Z,24.81
2024-03-02T07:49:57.605Z,24.85
2024-03-02T07:50:57.652Z,24.90
2024-03-02T07:51:57.701Z,24.93
2024-03-02T07:52:57.681Z,24.98
2024-03-02T07:53:57.636Z,25.02
2024-03-02T07:54:57.687Z,25.04
2024-03-02T07:55:57.644Z,25.07
2024-03-02T07:56:57.626Z,25.10
2024-03-02T07:57:57.692Z,25.14
2024-03-02T07:58:57.670Z,25.18
2024-03-02T07:59:57.624Z,25.21
2024-03-02T08:00:57.659Z,25.25
2024-03-02T08:01:57.727Z,25.29
2024-03-02T08:02:57.661Z,25.32
2024-03-02T08:03:57.655Z,25.36
2024-03-02T08:04:57.660Z,25.39
2024-03-02T08:05:57.653Z,25.44
2024-03-02T08:06:57.679Z,25.47
2024-03-02T08:07:57.658Z,25.50
2024-03-02T08:08:57.677Z,25.54
2024-03-02T08:09:57.740Z,25.58
2024-03-02T08:10:58.973Z,25.61
2024-03-02T08:11:57.861Z,25.64
2024-03-02T08:12:57.905Z,25.67
2024-03-02T08:13:57.873Z,25.71
2024-03-02T08:14:57.882Z,25.74
2024-03-02T08:15:57.926Z,25.78
2024-03-02T08:16:57.898Z,25.82
2024-03-02T08:17:57.955Z,25.85
2024-03-02T08:18:57.982Z,25.85
2024-03-02T08:19:58.013Z,25.87
2024-03-02T08:20:58.073Z,25.91
2024-03-02T08:21:58.115Z,25.94
2024-03-02T08:22:58.149Z,25.94
2024-03-02T08:23:58.193Z,25.98
2024-03-02T08:25:20.829Z,26.03
2024-03-02T08:25:58.258Z,26.05
2024-03-02T08:26:58.263Z,26.10
2024-03-02T08:28:58.288Z,26.19
2024-03-02T08:29:58.273Z,26.21
2024-03-02T08:30:58.404Z,26.25
2024-03-02T08:31:58.292Z,26.28
2024-03-02T08:32:58.329Z,26.32
2024-03-02T08:33:58.361Z,26.33
2024-03-02T08:34:58.271Z,26.34
2024-03-02T08:35:58.269Z,26.37
2024-03-02T08:36:58.380Z,26.38
2024-03-02T08:37:58.310Z,26.40
2024-03-02T08:38:58.294Z,26.41
2024-03-02T08:39:58.522Z,26.44
2024-03-02T08:40:58.317Z,26.48
2024-03-02T08:41:58.278Z,26.51
2024-03-02T08:42:58.329Z,26.55
2024-03-02T08:43:58.299Z,26.57
2024-03-02T08:44:58.301Z,26.59
2024-03-02T08:45:58.351Z,26.62
2024-03-02T08:46:58.305Z,26.64
2024-03-02T08:47:58.331Z,26.67
2024-03-02T08:48:58.367Z,26.69
2024-03-02T08:50:01.564Z,26.71
2024-03-02T08:50:58.365Z,26.73
2024-03-02T08:51:58.429Z,26.75
2024-03-02T08:52:58.342Z,26.77
2024-03-02T08:53:58.335Z,26.79
2024-03-02T08:54:58.359Z,26.81
2024-03-02T08:56:01.023Z,26.83
2024-03-02T08:56:58.363Z,26.83
2024-03-02T08:57:58.398Z,26.85
2024-03-02T08:58:58.357Z,26.87
2024-03-02T08:59:58.372Z,26.89
2024-03-02T09:00:58.399Z,26.89
2024-03-02T09:01:58.381Z,26.91
2024-03-02T09:02:58.371Z,26.90
2024-03-02T09:03:58.415Z,26.91
2024-03-02T09:04:58.367Z,26.90
2024-03-02T09:05:58.385Z,26.90
2024-03-02T09:06:58.459Z,26.90
2024-03-02T09:07:58.388Z,26.91
2024-03-02T09:08:58.335Z,26.91
2024-03-02T09:09:58.413Z,26.91
2024-03-02T09:10:58.417Z,26.92
2024-03-02T09:11:58.406Z,26.93
2024-03-02T09:12:58.411Z,26.95
2024-03-02T09:13:58.390Z,26.96
2024-03-02T09:14:58.388Z,26.98
2024-03-02T09:15:58.418Z,27.01
2024-03-02T09:16:58.396Z,27.02
2024-03-02T09:17:58.447Z,27.04
2024-03-02T09:18:58.426Z,27.07
2024-03-02T09:19:58.393Z,27.08
2024-03-02T09:20:58.372Z,27.10
2024-03-02T09:21:58.456Z,27.13
2024-03-02T09:22:58.408Z,27.16
2024-03-02T09:23:58.431Z,27.20
2024-03-02T09:24:58.468Z,27.23
2024-03-02T09:25:58.409Z,27.24
2024-03-02T09:26:58.460Z,27.26
2024-03-02T09:27:58.542Z,27.29
2024-03-02T09:28:58.568Z,27.32
2024-03-02T09:29:58.575Z,27.31
2024-03-02T09:31:00.837Z,27.32
2024-03-02T09:31:58.754Z,27.32
2024-03-02T09:33:58.891Z,27.31
2024-03-02T09:34:58.828Z,27.33
2024-03-02T09:35:58.829Z,27.33
2024-03-02T09:36:58.921Z,27.35
2024-03-02T09:37:58.840Z,27.35
2024-03-02T09:38:58.798Z,27.34
2024-03-02T09:39:58.892Z,27.35
2024-03-02T09:40:58.821Z,27.36
2024-03-02T09:41:58.841Z,27.37
2024-03-02T09:42:58.884Z,27.38
2024-03-02T09:43:58.848Z,27.39
2024-03-02T09:44:58.847Z,27.40
2024-03-02T09:45:58.828Z,27.41
2024-03-02T09:46:58.808Z,27.42
2024-03-02T09:47:58.844Z,27.43
2024-03-02T09:48:58.944Z,27.44
2024-03-02T09:49:58.835Z,27.45
2024-03-02T09:50:58.837Z,27.46
2024-03-02T09:51:58.889Z,27.46
2024-03-02T09:52:58.851Z,27.48
2024-03-02T09:54:09.413Z,27.48
2024-03-02T09:54:59.873Z,27.46
2024-03-02T09:55:58.808Z,27.49
2024-03-02T09:56:58.835Z,27.50
2024-03-02T09:57:58.849Z,27.50
2024-03-02T09:58:58.875Z,27.50
2024-03-02T09:59:58.840Z,27.50
2024-03-02T10:00:58.946Z,27.50
2024-03-02T10:01:58.851Z,27.52
2024-03-02T10:02:58.847Z,27.53
2024-03-02T10:03:58.883Z,27.54
2024-03-02T10:04:58.821Z,27.55
2024-03-02T10:05:58.816Z,27.57
2024-03-02T10:06:58.938Z,27.57
2024-03-02T10:07:58.859Z,27.59
2024-03-02T10:08:58.841Z,27.59
2024-03-02T10:09:58.942Z,27.59
2024-03-02T10:10:58.852Z,27.61
2024-03-02T10:11:58.879Z,27.61
2024-03-02T10:12:58.953Z,27.63
2024-03-02T10:13:58.848Z,27.63
2024-03-02T10:14:58.892Z,27.64
2024-03-02T10:15:58.971Z,27.65
2024-03-02T10:16:58.901Z,27.66
2024-03-02T10:17:58.936Z,27.67
2024-03-02T10:19:58.962Z,27.70
2024-03-02T10:20:58.937Z,27.71
2024-03-02T10:22:00.412Z,27.73
2024-03-02T10:22:58.951Z,27.75
2024-03-02T10:23:58.960Z,27.77
2024-03-02T10:24:59.789Z,27.78
2024-03-02T10:25:59.053Z,27.81
2024-03-02T10:26:58.964Z,27.82
2024-03-02T10:27:59.115Z,27.85
2024-03-02T10:28:58.980Z,27.88
2024-03-02T10:29:59.061Z,27.91
2024-03-02T10:30:59.081Z,27.93
2024-03-02T10:31:59.018Z,27.95
2024-03-02T10:32:59.088Z,27.97
2024-03-02T10:33:59.115Z,28.00
2024-03-02T10:34:59.081Z,28.03
2024-03-02T10:35:59.100Z,28.06
2024-03-02T10:36:59.235Z,28.08
2024-03-02T10:37:59.100Z,28.11
2024-03-02T10:38:59.128Z,28.12
2024-03-02T10:39:59.233Z,28.15
2024-03-02T10:40:59.246Z,28.18
2024-03-02T10:41:59.288Z,28.21
2024-03-02T10:42:59.381Z,28.23
2024-03-02T10:43:59.401Z,28.26
2024-03-02T10:44:59.480Z,28.30
2024-03-02T10:45:59.621Z,28.33
2024-03-02T10:46:59.641Z,28.36
2024-03-02T10:47:59.680Z,28.38
2024-03-02T10:48:59.885Z,28.40
2024-03-02T10:49:59.778Z,28.43
2024-03-02T10:50:59.816Z,28.46
2024-03-02T10:52:00.118Z,28.50
2024-03-02T10:52:59.928Z,28.52
2024-03-02T10:53:59.974Z,28.55
2024-03-02T10:55:00.136Z,28.57
2024-03-02T10:56:02.148Z,28.59
2024-03-02T10:57:00.063Z,28.61
2024-03-02T10:58:00.161Z,28.64
2024-03-02T10:59:00.077Z,28.66
2024-03-02T11:00:00.134Z,28.68
2024-03-02T11:01:00.143Z,28.68
2024-03-02T11:02:02.487Z,28.70
2024-03-02T11:03:01.088Z,28.71
2024-03-02T11:04:00.260Z,28.73
2024-03-02T11:05:00.129Z,28.74
2024-03-02T11:06:00.130Z,28.76
2024-03-02T11:07:00.162Z,28.76
2024-03-02T11:08:00.743Z,28.77
2024-03-02T11:09:00.073Z,28.78
2024-03-02T11:10:00.292Z,28.79
2024-03-02T11:11:00.193Z,28.80
2024-03-02T11:12:00.085Z,28.81
2024-03-02T11:13:00.180Z,28.82
2024-03-02T11:14:00.129Z,28.83
2024-03-02T11:15:00.147Z,28.85
2024-03-02T11:16:00.125Z,28.86
2024-03-02T11:17:00.105Z,28.87
2024-03-02T11:18:00.152Z,28.87
2024-03-02T11:19:00.290Z,28.89
2024-03-02T11:20:00.126Z,28.90
2024-03-02T11:21:00.154Z,28.93
2024-03-02T11:22:00.296Z,28.95
2024-03-02T11:23:00.104Z,28.98
2024-03-02T11:24:00.145Z,28.99
2024-03-02T11:25:00.120Z,29.01
2024-03-02T11:26:00.135Z,29.03
2024-03-02T11:27:00.099Z,29.04
2024-03-02T11:28:00.209Z,29.06
2024-03-02T11:29:00.111Z,29.09
2024-03-02T11:30:00.182Z,29.12
2024-03-02T11:31:00.153Z,29.15
2024-03-02T11:32:00.140Z,29.16
2024-03-02T11:33:00.237Z,29.19
2024-03-02T11:34:00.269Z,29.21
2024-03-02T11:35:00.284Z,29.23
2024-03-02T11:36:00.405Z,29.24
2024-03-02T11:37:00.577Z,29.27
2024-03-02T11:38:00.517Z,29.29
2024-03-02T11:39:00.698Z,29.31
2024-03-02T11:40:00.809Z,29.33
2024-03-02T11:41:00.706Z,29.34
2024-03-02T11:42:00.805Z,29.36
2024-03-02T11:43:01.080Z,29.37
2024-03-02T11:44:00.930Z,29.39
2024-03-02T11:45:00.961Z,29.41
2024-03-02T11:46:01.075Z,29.43
2024-03-02T11:47:01.065Z,29.44
2024-03-02T11:48:01.177Z,29.46
2024-03-02T11:49:01.249Z,29.47
2024-03-02T11:50:01.173Z,29.48
2024-03-02T11:51:01.251Z,29.50
2024-03-02T11:52:01.474Z,29.52
2024-03-02T11:53:01.334Z,29.54
2024-03-02T11:54:01.399Z,29.57
2024-03-02T11:55:01.486Z,29.59
2024-03-02T11:56:01.429Z,29.61
2024-03-02T11:57:01.486Z,29.62
2024-03-02T11:58:01.545Z,29.64
2024-03-02T11:59:01.547Z,29.65
2024-03-02T12:00:01.569Z,29.66
2024-03-02T12:01:01.749Z,29.68
2024-03-02T12:02:01.684Z,29.69
2024-03-02T12:03:01.661Z,29.71
2024-03-02T12:04:01.707Z,29.73
2024-03-02T12:05:01.669Z,29.75
2024-03-02T12:06:01.727Z,29.78
2024-03-02T12:07:01.980Z,29.79
2024-03-02T12:08:01.765Z,29.81
2024-03-02T12:09:01.775Z,29.83
2024-03-02T12:10:01.960Z,29.86
2024-03-02T12:11:02.351Z,29.87
2024-03-02T12:12:01.815Z,29.88
2024-03-02T12:13:02.115Z,29.90
2024-03-02T12:14:01.840Z,29.91
2024-03-02T12:15:01.992Z,29.93
2024-03-02T12:16:01.900Z,29.95
2024-03-02T12:17:01.845Z,29.96
2024-03-02T12:18:01.957Z,29.98
2024-03-02T12:19:01.928Z,29.99
2024-03-02T12:20:01.889Z,30.01
2024-03-02T12:21:01.910Z,30.03
2024-03-02T12:22:01.968Z,30.04
2024-03-02T12:23:01.945Z,30.06
2024-03-02T12:24:01.998Z,30.08
2024-03-02T12:25:02.247Z,30.09
2024-03-02T12:26:02.094Z,30.11
2024-03-02T12:27:02.159Z,30.13
2024-03-02T12:28:02.882Z,30.14
2024-03-02T12:29:02.285Z,30.16
2024-03-02T12:30:02.375Z,30.17
2024-03-02T12:31:02.444Z,30.18
2024-03-02T12:32:02.442Z,30.19
2024-03-02T12:33:02.493Z,30.20
2024-03-02T12:34:02.732Z,30.20
2024-03-02T12:35:02.629Z,30.22
2024-03-02T12:36:02.811Z,30.22
2024-03-02T12:37:02.994Z,30.23
2024-03-02T12:38:02.862Z,30.24
2024-03-02T12:39:02.864Z,30.25
2024-03-02T12:40:03.148Z,30.26
2024-03-02T12:41:02.991Z,30.27
2024-03-02T12:42:03.018Z,30.28
2024-03-02T12:43:03.188Z,30.30
2024-03-02T12:44:03.048Z,30.30
2024-03-02T12:45:03.092Z,30.31
2024-03-02T12:46:03.215Z,30.32
2024-03-02T12:47:03.170Z,30.33
2024-03-02T12:48:03.262Z,30.34
2024-03-02T12:49:03.316Z,30.36
2024-03-02T12:50:03.297Z,30.36
2024-03-02T12:51:03.317Z,30.38
2024-03-02T12:52:03.469Z,30.38
2024-03-02T12:53:03.427Z,30.39
2024-03-02T12:54:03.483Z,30.40
2024-03-02T12:55:03.635Z,30.41
2024-03-02T12:56:03.598Z,30.41
2024-03-02T12:57:03.658Z,30.43
2024-03-02T12:58:03.776Z,30.43